Hoppet Af Brantevik — SKWL — position and weather

sailwx.info

Track history (hours):
 
Tides and Currents Weather Stations Pressure Air Temp Water Temp Dewpoint Dewpoint Depression Visibility Wind Speed Wind Dir Waves Ship Positions

Hoppet Af Brantevik

Last reported at 2014-Sep-14 10:29 UTC. Time now 2014-Sep-18 01:42 UTC.
Position N 55°29' E 014°17'.

Length 17 m; draft 2.2 m.

Type: Ship. MMSI: 265525900.

Date/timePositionNaut miles runAvg speedWind from/ knotsBaromVisibWave heightAir tempDewpointWater temp
2014-Sep-14 10:29N 55°29' E 014°17'3 3.5
2014-Sep-14 09:33N 55°28' E 014°23'7 7.4
2014-Sep-14 08:33N 55°24' E 014°34'7 7.4
2014-Sep-14 07:33N 55°18' E 014°42'2 0.1
2014-Sep-13 14:31N 55°17' E 014°45'4 3.5
2014-Sep-13 13:30N 55°19' E 014°50'12 0.5
2014-Sep-12 13:33N 55°19' E 015°11'5 4.8
2014-Sep-12 12:33N 55°20' E 015°03'7 7.2
2014-Sep-12 11:33N 55°23' E 014°51'10 6.9
2014-Sep-12 10:07N 55°27' E 014°35'4 7.0
2014-Sep-12 09:34N 55°29' E 014°29'5 4.8
2014-Sep-12 08:30N 55°31' E 014°21'0 0.0
2014-Sep-12 07:18N 55°31' E 014°21'0 0.0
2014-Sep-12 06:33N 55°31' E 014°21'0 0.0
2014-Sep-12 05:27N 55°31' E 014°21'0 0.0
2014-Sep-12 04:33N 55°31' E 014°21'0 0.0
2014-Sep-12 03:33N 55°31' E 014°21'0 0.0
2014-Sep-12 02:33N 55°31' E 014°21'0 0.0
2014-Sep-12 01:33N 55°31' E 014°21'0 0.0
2014-Sep-12 00:33N 55°31' E 014°21'0 0.0
2014-Sep-11 23:33N 55°31' E 014°21'0 0.0
2014-Sep-11 22:33N 55°31' E 014°21'0 0.0
2014-Sep-11 21:27N 55°31' E 014°21'0 0.0
2014-Sep-11 20:33N 55°31' E 014°21'0 0.0
2014-Sep-11 19:33N 55°31' E 014°21'0 0.0
2014-Sep-11 18:33N 55°31' E 014°21'0 0.0
2014-Sep-11 17:33N 55°31' E 014°21'0 0.0
2014-Sep-11 16:33N 55°31' E 014°21'0 0.0
2014-Sep-11 15:33N 55°31' E 014°21'0 0.0
2014-Sep-11 14:33N 55°31' E 014°21'0 0.0
2014-Sep-11 13:33N 55°31' E 014°21'0 0.0
2014-Sep-11 12:27N 55°31' E 014°21'0 0.0
2014-Sep-11 11:33N 55°31' E 014°21'0 0.0
2014-Sep-11 10:33N 55°31' E 014°21'0 0.0
2014-Sep-11 09:33N 55°31' E 014°21'0 0.0
2014-Sep-11 08:33N 55°31' E 014°21'0 0.0
2014-Sep-11 07:33N 55°31' E 014°21'0 0.0
2014-Sep-11 06:33N 55°31' E 014°21'0 0.0
2014-Sep-11 05:33N 55°31' E 014°21'0 0.0
2014-Sep-11 04:33N 55°31' E 014°21'0 0.0
2014-Sep-11 03:33N 55°31' E 014°21'0 0.0
2014-Sep-11 02:33N 55°31' E 014°21'0 0.0
2014-Sep-11 01:33N 55°31' E 014°21'0 0.0
2014-Sep-11 00:33N 55°31' E 014°21'0 0.0
2014-Sep-10 23:33N 55°31' E 014°21'0 0.0
2014-Sep-10 22:33N 55°31' E 014°21'0 0.0
2014-Sep-10 21:33N 55°31' E 014°21'0 0.0
2014-Sep-10 20:33N 55°31' E 014°21'0 0.0
2014-Sep-10 19:33N 55°31' E 014°21'0 0.0
2014-Sep-10 18:33N 55°31' E 014°21'0 0.0
2014-Sep-10 17:33N 55°31' E 014°21'0 0.0
2014-Sep-10 16:33N 55°31' E 014°21'0 0.0
2014-Sep-10 15:33N 55°31' E 014°21'0 0.0
2014-Sep-10 14:33N 55°31' E 014°21'0 0.0
2014-Sep-10 13:33N 55°31' E 014°21'0 0.0
2014-Sep-10 12:33N 55°31' E 014°21'0 0.0
2014-Sep-10 11:33N 55°31' E 014°21'0 0.0
2014-Sep-10 10:33N 55°31' E 014°21'0 0.0
2014-Sep-10 09:27N 55°31' E 014°21'0 0.0
2014-Sep-10 08:27N 55°31' E 014°21'0 0.0
2014-Sep-10 07:33N 55°31' E 014°21'0 0.0
2014-Sep-10 06:33N 55°31' E 014°21'0 0.0
2014-Sep-10 05:33N 55°31' E 014°21'0 0.0
2014-Sep-10 04:33N 55°31' E 014°21'0 0.0
2014-Sep-10 03:33N 55°31' E 014°21'0 0.0
2014-Sep-10 02:33N 55°31' E 014°21'0 0.0
2014-Sep-10 01:33N 55°31' E 014°21'0 0.0
2014-Sep-10 00:33N 55°31' E 014°21'0 0.0
2014-Sep-09 23:33N 55°31' E 014°21'0 0.0
2014-Sep-09 22:27N 55°31' E 014°21'0 0.0
2014-Sep-09 21:27N 55°31' E 014°21'0 0.0
2014-Sep-09 20:27N 55°31' E 014°21'0 0.0
2014-Sep-09 19:33N 55°31' E 014°21'0 0.0
2014-Sep-09 18:33N 55°31' E 014°21'0 0.0
2014-Sep-09 17:33N 55°31' E 014°21'0 0.0
2014-Sep-09 16:27N 55°31' E 014°21'0 0.0
2014-Sep-09 15:33N 55°31' E 014°21'0 0.0
2014-Sep-09 14:33N 55°31' E 014°21'0 0.0
2014-Sep-09 13:33N 55°31' E 014°21'0 0.0
2014-Sep-09 12:33N 55°31' E 014°21'0 0.0
2014-Sep-09 11:33N 55°31' E 014°21'0 0.0
2014-Sep-09 10:33N 55°31' E 014°21'0 0.0
2014-Sep-09 09:33N 55°31' E 014°21'0 0.0
2014-Sep-09 08:33N 55°31' E 014°21'0 0.0
2014-Sep-09 07:33N 55°31' E 014°21'0 0.0
2014-Sep-09 06:33N 55°31' E 014°21'0 0.0
2014-Sep-09 05:27N 55°31' E 014°21'0 0.0
2014-Sep-09 04:33N 55°31' E 014°21'0 0.0
2014-Sep-09 03:33N 55°31' E 014°21'0 0.0
2014-Sep-09 02:33N 55°31' E 014°21'0 0.0
2014-Sep-09 01:33N 55°31' E 014°21'0 0.0
2014-Sep-09 00:33N 55°31' E 014°21'0 0.0
2014-Sep-08 23:27N 55°31' E 014°21'0 0.0
2014-Sep-08 22:33N 55°31' E 014°21'0 0.0
2014-Sep-08 21:33N 55°31' E 014°21'0 0.0
2014-Sep-08 20:27N 55°31' E 014°21'0 0.0
2014-Sep-08 19:33N 55°31' E 014°21'0 0.0
2014-Sep-08 18:33N 55°31' E 014°21'0 0.0
2014-Sep-08 17:33N 55°31' E 014°21'0 0.0
2014-Sep-08 16:33N 55°31' E 014°21'0 0.0
2014-Sep-08 15:33N 55°31' E 014°21'0 0.0
2014-Sep-08 14:33N 55°31' E 014°21'0 0.0
2014-Sep-08 13:27N 55°31' E 014°21'0 0.0
2014-Sep-08 12:33N 55°31' E 014°21'0 0.0
2014-Sep-08 11:33N 55°31' E 014°21'0 0.0
2014-Sep-08 10:33N 55°31' E 014°21'0 0.0
2014-Sep-08 09:33N 55°31' E 014°21'0 0.0
2014-Sep-08 08:33N 55°31' E 014°21'0 0.0
2014-Sep-08 07:33N 55°31' E 014°21'0 0.0
2014-Sep-08 06:33N 55°31' E 014°21'0 0.0
2014-Sep-08 05:27N 55°31' E 014°21'0 0.0
2014-Sep-08 04:33N 55°31' E 014°21'0 0.0
2014-Sep-08 03:33N 55°31' E 014°21'0 0.0
2014-Sep-08 02:33N 55°31' E 014°21'0 0.0
2014-Sep-08 01:33N 55°31' E 014°21'0 0.0
2014-Sep-08 00:33N 55°31' E 014°21'0 0.0
2014-Sep-07 23:33N 55°31' E 014°21'0 0.0
2014-Sep-07 22:33N 55°31' E 014°21'0 0.0
2014-Sep-07 21:33N 55°31' E 014°21'0 0.0
2014-Sep-07 20:33N 55°31' E 014°21'0 0.0
2014-Sep-07 19:27N 55°31' E 014°21'0 0.0
2014-Sep-07 18:21N 55°31' E 014°21'0 0.0
2014-Sep-07 17:27N 55°31' E 014°21'0 0.0
2014-Sep-07 16:33N 55°31' E 014°21'0 0.0
2014-Sep-07 15:33N 55°31' E 014°21'0 0.0
2014-Sep-07 14:33N 55°31' E 014°21'0 0.0
2014-Sep-07 13:33N 55°31' E 014°21'0 0.0
2014-Sep-07 12:27N 55°31' E 014°21'0 0.0
2014-Sep-07 11:33N 55°31' E 014°21'0 0.0
2014-Sep-07 10:33N 55°31' E 014°21'0 0.0
2014-Sep-07 09:33N 55°31' E 014°21'0 0.0
2014-Sep-07 08:33N 55°31' E 014°21'0 0.0
2014-Sep-07 07:33N 55°31' E 014°21'0 0.0
2014-Sep-07 06:33N 55°31' E 014°21'0 0.0
2014-Sep-07 05:33N 55°31' E 014°21'0 0.0
2014-Sep-07 04:30N 55°31' E 014°21'0 0.0
2014-Sep-07 03:33N 55°31' E 014°21'0 0.0
2014-Sep-07 02:33N 55°31' E 014°21'0 0.0
2014-Sep-07 01:33N 55°31' E 014°21'0 0.0
2014-Sep-07 00:33N 55°31' E 014°21'0 0.0
2014-Sep-06 23:27N 55°31' E 014°21'0 0.0
2014-Sep-06 22:27N 55°31' E 014°21'0 0.0
2014-Sep-06 21:33N 55°31' E 014°21'0 0.0
2014-Sep-06 20:33N 55°31' E 014°21'0 0.0
2014-Sep-06 19:27N 55°31' E 014°21'0 0.0
2014-Sep-06 18:33N 55°31' E 014°21'0 0.0
2014-Sep-06 17:33N 55°31' E 014°21'0 0.0
2014-Sep-06 16:33N 55°31' E 014°21'0 0.0
2014-Sep-06 15:33N 55°31' E 014°21'0 0.0
2014-Sep-06 14:33N 55°31' E 014°21'0 0.0
2014-Sep-06 13:33N 55°31' E 014°21'0 0.0
2014-Sep-06 12:33N 55°31' E 014°21'0 0.0
2014-Sep-06 11:33N 55°31' E 014°21'0 0.0
2014-Sep-06 10:30N 55°31' E 014°21'0 0.0
2014-Sep-06 09:33N 55°31' E 014°21'0 0.0
2014-Sep-06 08:33N 55°31' E 014°21'0 0.0
2014-Sep-06 07:27N 55°31' E 014°21'0 0.0
2014-Sep-06 06:15N 55°31' E 014°21'0 0.0
2014-Sep-06 05:33N 55°31' E 014°21'0 0.0
2014-Sep-06 04:33N 55°31' E 014°21'0 0.0
2014-Sep-06 03:33N 55°31' E 014°21'0 0.0
2014-Sep-06 02:21N 55°31' E 014°21'0 0.0
2014-Sep-06 01:27N 55°31' E 014°21'0 0.0
2014-Sep-06 00:33N 55°31' E 014°21'0 0.0
2014-Sep-05 23:33N 55°31' E 014°21'0 0.0
2014-Sep-05 22:33N 55°31' E 014°21'0 0.0
2014-Sep-05 21:29N 55°31' E 014°21'0 0.0
2014-Sep-05 20:33N 55°31' E 014°21'0 0.0
2014-Sep-05 19:33N 55°31' E 014°21'0 0.0
2014-Sep-05 18:33N 55°31' E 014°21'0 0.0
2014-Sep-05 17:27N 55°31' E 014°21'0 0.0
2014-Sep-05 16:20N 55°31' E 014°21'0 0.0
2014-Sep-05 15:33N 55°31' E 014°21'0 0.0
2014-Sep-05 14:29N 55°31' E 014°21'0 0.0
2014-Sep-05 13:33N 55°31' E 014°21'0 0.0
2014-Sep-05 12:32N 55°31' E 014°21'0 0.0
2014-Sep-05 11:32N 55°31' E 014°21'0 0.0
2014-Sep-05 10:32N 55°31' E 014°21'0 0.0
2014-Sep-05 09:29N 55°31' E 014°21'0 0.0
2014-Sep-05 08:32N 55°31' E 014°21'0 0.0
2014-Sep-05 07:32N 55°31' E 014°21'0 0.0
2014-Sep-05 06:32N 55°31' E 014°21'0 0.0
2014-Sep-05 05:32N 55°31' E 014°21'0 0.0
2014-Sep-05 04:33N 55°31' E 014°21'0 0.0
2014-Sep-05 03:20N 55°31' E 014°21'0 0.0
2014-Sep-05 02:26N 55°31' E 014°21'0 0.0
2014-Sep-05 01:32N 55°31' E 014°21'0 0.0
2014-Sep-05 00:20N 55°31' E 014°21'0 0.0
2014-Sep-04 23:32N 55°31' E 014°21'0 0.0
2014-Sep-04 22:32N 55°31' E 014°21'0 0.0
2014-Sep-04 21:32N 55°31' E 014°21'0 0.0
2014-Sep-04 20:32N 55°31' E 014°21'0 0.0
2014-Sep-04 19:32N 55°31' E 014°21'0 0.0
2014-Sep-04 18:32N 55°31' E 014°21'0 0.0
2014-Sep-04 17:32N 55°31' E 014°21'0 0.0
2014-Sep-04 16:32N 55°31' E 014°21'0 0.0
2014-Sep-04 15:32N 55°31' E 014°21'0 0.0
2014-Sep-04 14:26N 55°31' E 014°21'0 0.0
2014-Sep-04 13:32N 55°31' E 014°21'0 0.0
2014-Sep-04 12:20N 55°31' E 014°21'0 0.0
2014-Sep-04 11:32N 55°31' E 014°21'0 0.0
2014-Sep-04 10:32N 55°31' E 014°21'  
Track history (hours):
 
Tides and Currents Weather Stations Pressure Air Temp Water Temp Dewpoint Dewpoint Depression Visibility Wind Speed Wind Dir Waves Ship Positions

Hoppet Af Brantevik

Last reported at 2014-Sep-14 10:29 UTC. Time now 2014-Sep-18 01:42 UTC.
Position N 55°29' E 014°17'.

Length 17 m; draft 2.2 m.

Type: Ship. MMSI: 265525900.

Date/timePositionNaut miles runAvg speedWind from/ knotsBaromVisibWave heightAir tempDewpointWater temp
2014-Sep-14 10:29N 55°29' E 014°17'3 3.5
2014-Sep-14 09:33N 55°28' E 014°23'7 7.4
2014-Sep-14 08:33N 55°24' E 014°34'7 7.4
2014-Sep-14 07:33N 55°18' E 014°42'2 0.1
2014-Sep-13 14:31N 55°17' E 014°45'4 3.5
2014-Sep-13 13:30N 55°19' E 014°50'12 0.5
2014-Sep-12 13:33N 55°19' E 015°11'5 4.8
2014-Sep-12 12:33N 55°20' E 015°03'7 7.2
2014-Sep-12 11:33N 55°23' E 014°51'10 6.9
2014-Sep-12 10:07N 55°27' E 014°35'4 7.0
2014-Sep-12 09:34N 55°29' E 014°29'5 4.8
2014-Sep-12 08:30N 55°31' E 014°21'0 0.0
2014-Sep-12 07:18N 55°31' E 014°21'0 0.0
2014-Sep-12 06:33N 55°31' E 014°21'0 0.0
2014-Sep-12 05:27N 55°31' E 014°21'0 0.0
2014-Sep-12 04:33N 55°31' E 014°21'0 0.0
2014-Sep-12 03:33N 55°31' E 014°21'0 0.0
2014-Sep-12 02:33N 55°31' E 014°21'0 0.0
2014-Sep-12 01:33N 55°31' E 014°21'0 0.0
2014-Sep-12 00:33N 55°31' E 014°21'0 0.0
2014-Sep-11 23:33N 55°31' E 014°21'0 0.0
2014-Sep-11 22:33N 55°31' E 014°21'0 0.0
2014-Sep-11 21:27N 55°31' E 014°21'0 0.0
2014-Sep-11 20:33N 55°31' E 014°21'0 0.0
2014-Sep-11 19:33N 55°31' E 014°21'0 0.0
2014-Sep-11 18:33N 55°31' E 014°21'0 0.0
2014-Sep-11 17:33N 55°31' E 014°21'0 0.0
2014-Sep-11 16:33N 55°31' E 014°21'0 0.0
2014-Sep-11 15:33N 55°31' E 014°21'0 0.0
2014-Sep-11 14:33N 55°31' E 014°21'0 0.0
2014-Sep-11 13:33N 55°31' E 014°21'0 0.0
2014-Sep-11 12:27N 55°31' E 014°21'0 0.0
2014-Sep-11 11:33N 55°31' E 014°21'0 0.0
2014-Sep-11 10:33N 55°31' E 014°21'0 0.0
2014-Sep-11 09:33N 55°31' E 014°21'0 0.0
2014-Sep-11 08:33N 55°31' E 014°21'0 0.0
2014-Sep-11 07:33N 55°31' E 014°21'0 0.0
2014-Sep-11 06:33N 55°31' E 014°21'0 0.0
2014-Sep-11 05:33N 55°31' E 014°21'0 0.0
2014-Sep-11 04:33N 55°31' E 014°21'0 0.0
2014-Sep-11 03:33N 55°31' E 014°21'0 0.0
2014-Sep-11 02:33N 55°31' E 014°21'0 0.0
2014-Sep-11 01:33N 55°31' E 014°21'0 0.0
2014-Sep-11 00:33N 55°31' E 014°21'0 0.0
2014-Sep-10 23:33N 55°31' E 014°21'0 0.0
2014-Sep-10 22:33N 55°31' E 014°21'0 0.0
2014-Sep-10 21:33N 55°31' E 014°21'0 0.0
2014-Sep-10 20:33N 55°31' E 014°21'0 0.0
2014-Sep-10 19:33N 55°31' E 014°21'0 0.0
2014-Sep-10 18:33N 55°31' E 014°21'0 0.0
2014-Sep-10 17:33N 55°31' E 014°21'0 0.0
2014-Sep-10 16:33N 55°31' E 014°21'0 0.0
2014-Sep-10 15:33N 55°31' E 014°21'0 0.0
2014-Sep-10 14:33N 55°31' E 014°21'0 0.0
2014-Sep-10 13:33N 55°31' E 014°21'0 0.0
2014-Sep-10 12:33N 55°31' E 014°21'0 0.0
2014-Sep-10 11:33N 55°31' E 014°21'0 0.0
2014-Sep-10 10:33N 55°31' E 014°21'0 0.0
2014-Sep-10 09:27N 55°31' E 014°21'0 0.0
2014-Sep-10 08:27N 55°31' E 014°21'0 0.0
2014-Sep-10 07:33N 55°31' E 014°21'0 0.0
2014-Sep-10 06:33N 55°31' E 014°21'0 0.0
2014-Sep-10 05:33N 55°31' E 014°21'0 0.0
2014-Sep-10 04:33N 55°31' E 014°21'0 0.0
2014-Sep-10 03:33N 55°31' E 014°21'0 0.0
2014-Sep-10 02:33N 55°31' E 014°21'0 0.0
2014-Sep-10 01:33N 55°31' E 014°21'0 0.0
2014-Sep-10 00:33N 55°31' E 014°21'0 0.0
2014-Sep-09 23:33N 55°31' E 014°21'0 0.0
2014-Sep-09 22:27N 55°31' E 014°21'0 0.0
2014-Sep-09 21:27N 55°31' E 014°21'0 0.0
2014-Sep-09 20:27N 55°31' E 014°21'0 0.0
2014-Sep-09 19:33N 55°31' E 014°21'0 0.0
2014-Sep-09 18:33N 55°31' E 014°21'0 0.0
2014-Sep-09 17:33N 55°31' E 014°21'0 0.0
2014-Sep-09 16:27N 55°31' E 014°21'0 0.0
2014-Sep-09 15:33N 55°31' E 014°21'0 0.0
2014-Sep-09 14:33N 55°31' E 014°21'0 0.0
2014-Sep-09 13:33N 55°31' E 014°21'0 0.0
2014-Sep-09 12:33N 55°31' E 014°21'0 0.0
2014-Sep-09 11:33N 55°31' E 014°21'0 0.0
2014-Sep-09 10:33N 55°31' E 014°21'0 0.0
2014-Sep-09 09:33N 55°31' E 014°21'0 0.0
2014-Sep-09 08:33N 55°31' E 014°21'0 0.0
2014-Sep-09 07:33N 55°31' E 014°21'0 0.0
2014-Sep-09 06:33N 55°31' E 014°21'0 0.0
2014-Sep-09 05:27N 55°31' E 014°21'0 0.0
2014-Sep-09 04:33N 55°31' E 014°21'0 0.0
2014-Sep-09 03:33N 55°31' E 014°21'0 0.0
2014-Sep-09 02:33N 55°31' E 014°21'0 0.0
2014-Sep-09 01:33N 55°31' E 014°21'0 0.0
2014-Sep-09 00:33N 55°31' E 014°21'0 0.0
2014-Sep-08 23:27N 55°31' E 014°21'0 0.0
2014-Sep-08 22:33N 55°31' E 014°21'0 0.0
2014-Sep-08 21:33N 55°31' E 014°21'0 0.0
2014-Sep-08 20:27N 55°31' E 014°21'0 0.0
2014-Sep-08 19:33N 55°31' E 014°21'0 0.0
2014-Sep-08 18:33N 55°31' E 014°21'0 0.0
2014-Sep-08 17:33N 55°31' E 014°21'0 0.0
2014-Sep-08 16:33N 55°31' E 014°21'0 0.0
2014-Sep-08 15:33N 55°31' E 014°21'0 0.0
2014-Sep-08 14:33N 55°31' E 014°21'0 0.0
2014-Sep-08 13:27N 55°31' E 014°21'0 0.0
2014-Sep-08 12:33N 55°31' E 014°21'0 0.0
2014-Sep-08 11:33N 55°31' E 014°21'0 0.0
2014-Sep-08 10:33N 55°31' E 014°21'0 0.0
2014-Sep-08 09:33N 55°31' E 014°21'0 0.0
2014-Sep-08 08:33N 55°31' E 014°21'0 0.0
2014-Sep-08 07:33N 55°31' E 014°21'0 0.0
2014-Sep-08 06:33N 55°31' E 014°21'0 0.0
2014-Sep-08 05:27N 55°31' E 014°21'0 0.0
2014-Sep-08 04:33N 55°31' E 014°21'0 0.0
2014-Sep-08 03:33N 55°31' E 014°21'0 0.0
2014-Sep-08 02:33N 55°31' E 014°21'0 0.0
2014-Sep-08 01:33N 55°31' E 014°21'0 0.0
2014-Sep-08 00:33N 55°31' E 014°21'0 0.0
2014-Sep-07 23:33N 55°31' E 014°21'0 0.0
2014-Sep-07 22:33N 55°31' E 014°21'0 0.0
2014-Sep-07 21:33N 55°31' E 014°21'0 0.0
2014-Sep-07 20:33N 55°31' E 014°21'0 0.0
2014-Sep-07 19:27N 55°31' E 014°21'0 0.0
2014-Sep-07 18:21N 55°31' E 014°21'0 0.0
2014-Sep-07 17:27N 55°31' E 014°21'0 0.0
2014-Sep-07 16:33N 55°31' E 014°21'0 0.0
2014-Sep-07 15:33N 55°31' E 014°21'0 0.0
2014-Sep-07 14:33N 55°31' E 014°21'0 0.0
2014-Sep-07 13:33N 55°31' E 014°21'0 0.0
2014-Sep-07 12:27N 55°31' E 014°21'0 0.0
2014-Sep-07 11:33N 55°31' E 014°21'0 0.0
2014-Sep-07 10:33N 55°31' E 014°21'0 0.0
2014-Sep-07 09:33N 55°31' E 014°21'0 0.0
2014-Sep-07 08:33N 55°31' E 014°21'0 0.0
2014-Sep-07 07:33N 55°31' E 014°21'0 0.0
2014-Sep-07 06:33N 55°31' E 014°21'0 0.0
2014-Sep-07 05:33N 55°31' E 014°21'0 0.0
2014-Sep-07 04:30N 55°31' E 014°21'0 0.0
2014-Sep-07 03:33N 55°31' E 014°21'0 0.0
2014-Sep-07 02:33N 55°31' E 014°21'0 0.0
2014-Sep-07 01:33N 55°31' E 014°21'0 0.0
2014-Sep-07 00:33N 55°31' E 014°21'0 0.0
2014-Sep-06 23:27N 55°31' E 014°21'0 0.0
2014-Sep-06 22:27N 55°31' E 014°21'0 0.0
2014-Sep-06 21:33N 55°31' E 014°21'0 0.0
2014-Sep-06 20:33N 55°31' E 014°21'0 0.0
2014-Sep-06 19:27N 55°31' E 014°21'0 0.0
2014-Sep-06 18:33N 55°31' E 014°21'0 0.0
2014-Sep-06 17:33N 55°31' E 014°21'0 0.0
2014-Sep-06 16:33N 55°31' E 014°21'0 0.0
2014-Sep-06 15:33N 55°31' E 014°21'0 0.0
2014-Sep-06 14:33N 55°31' E 014°21'0 0.0
2014-Sep-06 13:33N 55°31' E 014°21'0 0.0
2014-Sep-06 12:33N 55°31' E 014°21'0 0.0
2014-Sep-06 11:33N 55°31' E 014°21'0 0.0
2014-Sep-06 10:30N 55°31' E 014°21'0 0.0
2014-Sep-06 09:33N 55°31' E 014°21'0 0.0
2014-Sep-06 08:33N 55°31' E 014°21'0 0.0
2014-Sep-06 07:27N 55°31' E 014°21'0 0.0
2014-Sep-06 06:15N 55°31' E 014°21'0 0.0
2014-Sep-06 05:33N 55°31' E 014°21'0 0.0
2014-Sep-06 04:33N 55°31' E 014°21'0 0.0
2014-Sep-06 03:33N 55°31' E 014°21'0 0.0
2014-Sep-06 02:21N 55°31' E 014°21'0 0.0
2014-Sep-06 01:27N 55°31' E 014°21'0 0.0
2014-Sep-06 00:33N 55°31' E 014°21'0 0.0
2014-Sep-05 23:33N 55°31' E 014°21'0 0.0
2014-Sep-05 22:33N 55°31' E 014°21'0 0.0
2014-Sep-05 21:29N 55°31' E 014°21'0 0.0
2014-Sep-05 20:33N 55°31' E 014°21'0 0.0
2014-Sep-05 19:33N 55°31' E 014°21'0 0.0
2014-Sep-05 18:33N 55°31' E 014°21'0 0.0
2014-Sep-05 17:27N 55°31' E 014°21'0 0.0
2014-Sep-05 16:20N 55°31' E 014°21'0 0.0
2014-Sep-05 15:33N 55°31' E 014°21'0 0.0
2014-Sep-05 14:29N 55°31' E 014°21'0 0.0
2014-Sep-05 13:33N 55°31' E 014°21'0 0.0
2014-Sep-05 12:32N 55°31' E 014°21'0 0.0
2014-Sep-05 11:32N 55°31' E 014°21'0 0.0
2014-Sep-05 10:32N 55°31' E 014°21'0 0.0
2014-Sep-05 09:29N 55°31' E 014°21'0 0.0
2014-Sep-05 08:32N 55°31' E 014°21'0 0.0
2014-Sep-05 07:32N 55°31' E 014°21'0 0.0
2014-Sep-05 06:32N 55°31' E 014°21'0 0.0
2014-Sep-05 05:32N 55°31' E 014°21'0 0.0
2014-Sep-05 04:33N 55°31' E 014°21'0 0.0
2014-Sep-05 03:20N 55°31' E 014°21'0 0.0
2014-Sep-05 02:26N 55°31' E 014°21'0 0.0
2014-Sep-05 01:32N 55°31' E 014°21'0 0.0
2014-Sep-05 00:20N 55°31' E 014°21'0 0.0
2014-Sep-04 23:32N 55°31' E 014°21'0 0.0
2014-Sep-04 22:32N 55°31' E 014°21'0 0.0
2014-Sep-04 21:32N 55°31' E 014°21'0 0.0
2014-Sep-04 20:32N 55°31' E 014°21'0 0.0
2014-Sep-04 19:32N 55°31' E 014°21'0 0.0
2014-Sep-04 18:32N 55°31' E 014°21'0 0.0
2014-Sep-04 17:32N 55°31' E 014°21'0 0.0
2014-Sep-04 16:32N 55°31' E 014°21'0 0.0
2014-Sep-04 15:32N 55°31' E 014°21'0 0.0
2014-Sep-04 14:26N 55°31' E 014°21'0 0.0
2014-Sep-04 13:32N 55°31' E 014°21'0 0.0
2014-Sep-04 12:20N 55°31' E 014°21'0 0.0
2014-Sep-04 11:32N 55°31' E 014°21'0 0.0
2014-Sep-04 10:32N 55°31' E 014°21'  

Dump ship's entire track history